sensor_id;sensor_type;location;lat;lon;timestamp;P1;durP1;ratioP1;P2;durP2;ratioP2
23898;SDS011;20544;50.018;20.010;2023-11-19T00:00:24;23.83;;;20.78;;
23898;SDS011;20544;50.018;20.010;2023-11-19T00:03:43;26.58;;;18.83;;
23898;SDS011;20544;50.018;20.010;2023-11-19T00:07:01;27.68;;;19.88;;
23898;SDS011;20544;50.018;20.010;2023-11-19T00:10:20;26.98;;;21.65;;
23898;SDS011;20544;50.018;20.010;2023-11-19T00:13:37;23.15;;;20.33;;
23898;SDS011;20544;50.018;20.010;2023-11-19T00:16:56;28.05;;;20.93;;
23898;SDS011;20544;50.018;20.010;2023-11-19T00:23:28;27.85;;;21.13;;
23898;SDS011;20544;50.018;20.010;2023-11-19T00:26:45;26.83;;;20.48;;
23898;SDS011;20544;50.018;20.010;2023-11-19T00:30:02;29.60;;;20.33;;
23898;SDS011;20544;50.018;20.010;2023-11-19T00:33:22;25.25;;;19.60;;
23898;SDS011;20544;50.018;20.010;2023-11-19T00:36:39;24.78;;;20.15;;
23898;SDS011;20544;50.018;20.010;2023-11-19T00:39:56;22.53;;;18.38;;
23898;SDS011;20544;50.018;20.010;2023-11-19T00:43:13;29.25;;;19.20;;
23898;SDS011;20544;50.018;20.010;2023-11-19T00:46:31;25.38;;;19.55;;
23898;SDS011;20544;50.018;20.010;2023-11-19T00:49:48;29.43;;;19.65;;
23898;SDS011;20544;50.018;20.010;2023-11-19T00:53:05;27.13;;;20.65;;
23898;SDS011;20544;50.018;20.010;2023-11-19T00:56:22;27.78;;;20.88;;
23898;SDS011;20544;50.018;20.010;2023-11-19T00:59:40;27.13;;;21.45;;
23898;SDS011;20544;50.018;20.010;2023-11-19T01:02:58;29.13;;;21.48;;
23898;SDS011;20544;50.018;20.010;2023-11-19T01:06:15;22.88;;;20.15;;
23898;SDS011;20544;50.018;20.010;2023-11-19T01:12:58;27.65;;;22.53;;
23898;SDS011;20544;50.018;20.010;2023-11-19T01:16:16;23.45;;;20.70;;
23898;SDS011;20544;50.018;20.010;2023-11-19T01:19:34;27.15;;;23.58;;
23898;SDS011;20544;50.018;20.010;2023-11-19T01:22:51;28.48;;;22.48;;
23898;SDS011;20544;50.018;20.010;2023-11-19T01:26:08;27.40;;;20.83;;
23898;SDS011;20544;50.018;20.010;2023-11-19T01:29:26;26.38;;;19.88;;
23898;SDS011;20544;50.018;20.010;2023-11-19T01:32:45;31.73;;;20.38;;
23898;SDS011;20544;50.018;20.010;2023-11-19T01:36:03;30.23;;;20.13;;
23898;SDS011;20544;50.018;20.010;2023-11-19T01:39:24;30.18;;;21.68;;
23898;SDS011;20544;50.018;20.010;2023-11-19T01:42:41;24.50;;;20.93;;
23898;SDS011;20544;50.018;20.010;2023-11-19T01:45:58;23.48;;;20.13;;
23898;SDS011;20544;50.018;20.010;2023-11-19T01:49:17;25.78;;;20.55;;
23898;SDS011;20544;50.018;20.010;2023-11-19T01:52:35;24.53;;;19.40;;
23898;SDS011;20544;50.018;20.010;2023-11-19T01:55:53;23.85;;;19.05;;
23898;SDS011;20544;50.018;20.010;2023-11-19T01:59:11;24.65;;;20.10;;
23898;SDS011;20544;50.018;20.010;2023-11-19T02:02:31;27.08;;;20.68;;
23898;SDS011;20544;50.018;20.010;2023-11-19T02:05:49;23.08;;;20.03;;
23898;SDS011;20544;50.018;20.010;2023-11-19T02:09:06;24.83;;;20.63;;
23898;SDS011;20544;50.018;20.010;2023-11-19T02:12:25;29.00;;;19.75;;
23898;SDS011;20544;50.018;20.010;2023-11-19T02:15:43;22.65;;;20.40;;
23898;SDS011;20544;50.018;20.010;2023-11-19T02:19:00;26.45;;;21.98;;
23898;SDS011;20544;50.018;20.010;2023-11-19T02:22:18;24.10;;;21.30;;
23898;SDS011;20544;50.018;20.010;2023-11-19T02:25:35;22.88;;;20.40;;
23898;SDS011;20544;50.018;20.010;2023-11-19T02:32:11;29.98;;;19.90;;
23898;SDS011;20544;50.018;20.010;2023-11-19T02:35:30;23.95;;;18.95;;
23898;SDS011;20544;50.018;20.010;2023-11-19T02:38:48;25.53;;;19.43;;
23898;SDS011;20544;50.018;20.010;2023-11-19T02:42:05;21.80;;;18.18;;
23898;SDS011;20544;50.018;20.010;2023-11-19T02:45:23;32.58;;;20.80;;
23898;SDS011;20544;50.018;20.010;2023-11-19T02:48:40;29.20;;;20.70;;
23898;SDS011;20544;50.018;20.010;2023-11-19T02:51:57;27.50;;;21.15;;
23898;SDS011;20544;50.018;20.010;2023-11-19T02:55:16;24.35;;;20.18;;
23898;SDS011;20544;50.018;20.010;2023-11-19T02:58:35;30.85;;;22.03;;
23898;SDS011;20544;50.018;20.010;2023-11-19T03:01:52;26.13;;;20.80;;
23898;SDS011;20544;50.018;20.010;2023-11-19T03:05:09;27.35;;;21.45;;
23898;SDS011;20544;50.018;20.010;2023-11-19T03:08:27;32.15;;;22.60;;
23898;SDS011;20544;50.018;20.010;2023-11-19T03:11:44;28.30;;;19.78;;
23898;SDS011;20544;50.018;20.010;2023-11-19T03:15:01;28.25;;;21.20;;
23898;SDS011;20544;50.018;20.010;2023-11-19T03:18:21;23.10;;;20.15;;
23898;SDS011;20544;50.018;20.010;2023-11-19T03:21:39;26.83;;;21.45;;
23898;SDS011;20544;50.018;20.010;2023-11-19T03:24:56;24.58;;;21.15;;
23898;SDS011;20544;50.018;20.010;2023-11-19T03:28:15;31.13;;;21.48;;
23898;SDS011;20544;50.018;20.010;2023-11-19T03:31:32;26.10;;;20.85;;
23898;SDS011;20544;50.018;20.010;2023-11-19T03:34:49;32.40;;;21.58;;
23898;SDS011;20544;50.018;20.010;2023-11-19T03:38:07;23.93;;;21.03;;
23898;SDS011;20544;50.018;20.010;2023-11-19T03:41:24;28.80;;;22.48;;
23898;SDS011;20544;50.018;20.010;2023-11-19T03:44:43;31.60;;;23.53;;
23898;SDS011;20544;50.018;20.010;2023-11-19T03:48:01;27.08;;;22.28;;
23898;SDS011;20544;50.018;20.010;2023-11-19T03:51:19;28.03;;;23.33;;
23898;SDS011;20544;50.018;20.010;2023-11-19T03:54:36;27.23;;;23.40;;
23898;SDS011;20544;50.018;20.010;2023-11-19T03:57:52;31.73;;;23.53;;
23898;SDS011;20544;50.018;20.010;2023-11-19T04:01:12;29.53;;;23.28;;
23898;SDS011;20544;50.018;20.010;2023-11-19T04:04:29;27.83;;;22.98;;
23898;SDS011;20544;50.018;20.010;2023-11-19T04:07:46;28.90;;;23.20;;
23898;SDS011;20544;50.018;20.010;2023-11-19T04:11:03;31.80;;;24.05;;
23898;SDS011;20544;50.018;20.010;2023-11-19T04:14:21;34.38;;;24.58;;
23898;SDS011;20544;50.018;20.010;2023-11-19T04:17:37;40.23;;;27.28;;
23898;SDS011;20544;50.018;20.010;2023-11-19T04:20:54;29.65;;;24.93;;
23898;SDS011;20544;50.018;20.010;2023-11-19T04:24:11;27.23;;;24.00;;
23898;SDS011;20544;50.018;20.010;2023-11-19T04:27:28;35.75;;;23.58;;
23898;SDS011;20544;50.018;20.010;2023-11-19T04:30:47;36.68;;;26.88;;
23898;SDS011;20544;50.018;20.010;2023-11-19T04:34:04;35.10;;;26.35;;
23898;SDS011;20544;50.018;20.010;2023-11-19T04:37:21;43.78;;;26.70;;
23898;SDS011;20544;50.018;20.010;2023-11-19T04:40:38;31.83;;;26.95;;
23898;SDS011;20544;50.018;20.010;2023-11-19T04:43:55;37.33;;;25.38;;
23898;SDS011;20544;50.018;20.010;2023-11-19T04:47:12;31.28;;;26.03;;
23898;SDS011;20544;50.018;20.010;2023-11-19T04:50:29;28.58;;;25.38;;
23898;SDS011;20544;50.018;20.010;2023-11-19T04:53:46;39.53;;;27.08;;
23898;SDS011;20544;50.018;20.010;2023-11-19T04:57:04;36.25;;;27.40;;
23898;SDS011;20544;50.018;20.010;2023-11-19T05:00:21;36.78;;;27.75;;
23898;SDS011;20544;50.018;20.010;2023-11-19T05:03:38;36.80;;;27.88;;
23898;SDS011;20544;50.018;20.010;2023-11-19T05:06:56;36.78;;;27.98;;
23898;SDS011;20544;50.018;20.010;2023-11-19T05:10:14;34.63;;;27.83;;
23898;SDS011;20544;50.018;20.010;2023-11-19T05:13:32;36.58;;;29.95;;
23898;SDS011;20544;50.018;20.010;2023-11-19T05:16:49;36.00;;;28.28;;
23898;SDS011;20544;50.018;20.010;2023-11-19T05:20:06;44.10;;;28.80;;
23898;SDS011;20544;50.018;20.010;2023-11-19T05:23:25;35.18;;;29.08;;
23898;SDS011;20544;50.018;20.010;2023-11-19T05:26:41;41.13;;;29.73;;
23898;SDS011;20544;50.018;20.010;2023-11-19T05:29:58;42.45;;;31.25;;
23898;SDS011;20544;50.018;20.010;2023-11-19T05:33:17;36.53;;;27.75;;
23898;SDS011;20544;50.018;20.010;2023-11-19T05:36:34;38.43;;;30.25;;
23898;SDS011;20544;50.018;20.010;2023-11-19T05:39:51;36.03;;;30.95;;
23898;SDS011;20544;50.018;20.010;2023-11-19T05:43:10;38.18;;;29.35;;
23898;SDS011;20544;50.018;20.010;2023-11-19T05:46:27;40.28;;;30.40;;
23898;SDS011;20544;50.018;20.010;2023-11-19T05:49:45;42.03;;;31.65;;
23898;SDS011;20544;50.018;20.010;2023-11-19T05:53:02;40.73;;;31.08;;
23898;SDS011;20544;50.018;20.010;2023-11-19T05:56:22;40.28;;;30.75;;
23898;SDS011;20544;50.018;20.010;2023-11-19T05:59:39;36.20;;;30.78;;
23898;SDS011;20544;50.018;20.010;2023-11-19T06:02:57;36.80;;;30.43;;
23898;SDS011;20544;50.018;20.010;2023-11-19T06:06:14;40.80;;;29.98;;
23898;SDS011;20544;50.018;20.010;2023-11-19T06:09:31;37.88;;;30.53;;
23898;SDS011;20544;50.018;20.010;2023-11-19T06:12:48;43.33;;;30.75;;
23898;SDS011;20544;50.018;20.010;2023-11-19T06:16:07;35.57;;;29.87;;
23898;SDS011;20544;50.018;20.010;2023-11-19T06:19:25;39.98;;;29.70;;
23898;SDS011;20544;50.018;20.010;2023-11-19T06:22:42;35.60;;;29.33;;
23898;SDS011;20544;50.018;20.010;2023-11-19T06:25:58;36.58;;;29.63;;
23898;SDS011;20544;50.018;20.010;2023-11-19T06:29:16;42.88;;;29.60;;
23898;SDS011;20544;50.018;20.010;2023-11-19T06:32:33;35.50;;;28.03;;
23898;SDS011;20544;50.018;20.010;2023-11-19T06:35:50;35.75;;;29.90;;
23898;SDS011;20544;50.018;20.010;2023-11-19T06:39:07;40.18;;;29.00;;
23898;SDS011;20544;50.018;20.010;2023-11-19T06:42:25;32.85;;;28.48;;
23898;SDS011;20544;50.018;20.010;2023-11-19T06:45:42;31.13;;;27.43;;
23898;SDS011;20544;50.018;20.010;2023-11-19T06:48:59;38.15;;;28.08;;
23898;SDS011;20544;50.018;20.010;2023-11-19T06:52:16;33.65;;;27.50;;
23898;SDS011;20544;50.018;20.010;2023-11-19T06:55:33;38.88;;;29.25;;
23898;SDS011;20544;50.018;20.010;2023-11-19T06:58:50;37.80;;;27.05;;
23898;SDS011;20544;50.018;20.010;2023-11-19T07:02:07;32.00;;;25.10;;
23898;SDS011;20544;50.018;20.010;2023-11-19T07:05:25;38.10;;;24.63;;
23898;SDS011;20544;50.018;20.010;2023-11-19T07:08:43;31.80;;;24.20;;
23898;SDS011;20544;50.018;20.010;2023-11-19T07:12:00;25.50;;;22.70;;
23898;SDS011;20544;50.018;20.010;2023-11-19T07:15:18;38.60;;;25.58;;
23898;SDS011;20544;50.018;20.010;2023-11-19T07:18:35;35.68;;;24.38;;
23898;SDS011;20544;50.018;20.010;2023-11-19T07:21:52;28.40;;;23.80;;
23898;SDS011;20544;50.018;20.010;2023-11-19T07:25:09;31.50;;;23.38;;
23898;SDS011;20544;50.018;20.010;2023-11-19T07:28:27;28.45;;;23.33;;
23898;SDS011;20544;50.018;20.010;2023-11-19T07:31:44;28.68;;;22.58;;
23898;SDS011;20544;50.018;20.010;2023-11-19T07:35:01;28.93;;;20.40;;
23898;SDS011;20544;50.018;20.010;2023-11-19T07:38:19;23.98;;;19.65;;
23898;SDS011;20544;50.018;20.010;2023-11-19T07:41:36;24.95;;;19.00;;
23898;SDS011;20544;50.018;20.010;2023-11-19T07:44:53;21.53;;;17.70;;
23898;SDS011;20544;50.018;20.010;2023-11-19T07:48:10;28.88;;;19.45;;
23898;SDS011;20544;50.018;20.010;2023-11-19T07:51:31;22.00;;;16.65;;
23898;SDS011;20544;50.018;20.010;2023-11-19T07:54:49;19.60;;;15.88;;
23898;SDS011;20544;50.018;20.010;2023-11-19T07:58:05;22.45;;;16.60;;
23898;SDS011;20544;50.018;20.010;2023-11-19T08:01:23;22.00;;;16.35;;
23898;SDS011;20544;50.018;20.010;2023-11-19T08:04:40;20.28;;;16.35;;
23898;SDS011;20544;50.018;20.010;2023-11-19T08:07:59;19.33;;;15.43;;
23898;SDS011;20544;50.018;20.010;2023-11-19T08:11:16;19.20;;;14.58;;
23898;SDS011;20544;50.018;20.010;2023-11-19T08:14:34;20.05;;;13.28;;
23898;SDS011;20544;50.018;20.010;2023-11-19T08:17:51;16.30;;;13.93;;
23898;SDS011;20544;50.018;20.010;2023-11-19T08:21:09;18.60;;;13.38;;
23898;SDS011;20544;50.018;20.010;2023-11-19T08:24:27;16.25;;;12.93;;
23898;SDS011;20544;50.018;20.010;2023-11-19T08:27:45;16.50;;;13.30;;
23898;SDS011;20544;50.018;20.010;2023-11-19T08:31:05;15.13;;;13.18;;
23898;SDS011;20544;50.018;20.010;2023-11-19T08:34:26;15.13;;;11.43;;
23898;SDS011;20544;50.018;20.010;2023-11-19T08:37:43;15.68;;;12.20;;
23898;SDS011;20544;50.018;20.010;2023-11-19T08:41:01;16.50;;;11.80;;
23898;SDS011;20544;50.018;20.010;2023-11-19T08:44:22;18.83;;;13.45;;
23898;SDS011;20544;50.018;20.010;2023-11-19T08:48:04;19.08;;;13.23;;
23898;SDS011;20544;50.018;20.010;2023-11-19T08:51:22;16.90;;;12.95;;
23898;SDS011;20544;50.018;20.010;2023-11-19T08:54:43;18.35;;;12.13;;
23898;SDS011;20544;50.018;20.010;2023-11-19T08:58:02;13.88;;;10.78;;
23898;SDS011;20544;50.018;20.010;2023-11-19T09:01:19;12.50;;;11.15;;
23898;SDS011;20544;50.018;20.010;2023-11-19T09:04:36;13.40;;;11.48;;
23898;SDS011;20544;50.018;20.010;2023-11-19T09:08:17;14.68;;;11.43;;
23898;SDS011;20544;50.018;20.010;2023-11-19T09:12:15;11.48;;;10.23;;
23898;SDS011;20544;50.018;20.010;2023-11-19T09:15:34;12.65;;;10.83;;
23898;SDS011;20544;50.018;20.010;2023-11-19T09:19:04;14.88;;;10.95;;
23898;SDS011;20544;50.018;20.010;2023-11-19T09:22:21;16.93;;;12.70;;
23898;SDS011;20544;50.018;20.010;2023-11-19T09:25:38;15.38;;;11.35;;
23898;SDS011;20544;50.018;20.010;2023-11-19T09:28:55;14.20;;;10.80;;
23898;SDS011;20544;50.018;20.010;2023-11-19T09:32:12;19.00;;;11.43;;
23898;SDS011;20544;50.018;20.010;2023-11-19T09:35:29;15.33;;;11.20;;
23898;SDS011;20544;50.018;20.010;2023-11-19T09:38:46;15.50;;;11.05;;
23898;SDS011;20544;50.018;20.010;2023-11-19T09:42:03;15.88;;;11.70;;
23898;SDS011;20544;50.018;20.010;2023-11-19T09:45:21;13.45;;;10.70;;
23898;SDS011;20544;50.018;20.010;2023-11-19T09:48:40;13.15;;;11.63;;
23898;SDS011;20544;50.018;20.010;2023-11-19T09:51:59;15.70;;;11.53;;
23898;SDS011;20544;50.018;20.010;2023-11-19T09:55:17;15.58;;;11.45;;
23898;SDS011;20544;50.018;20.010;2023-11-19T09:58:34;21.70;;;12.70;;
23898;SDS011;20544;50.018;20.010;2023-11-19T10:01:51;14.60;;;11.33;;
23898;SDS011;20544;50.018;20.010;2023-11-19T10:05:12;13.05;;;10.63;;
23898;SDS011;20544;50.018;20.010;2023-11-19T10:08:29;13.95;;;11.33;;
23898;SDS011;20544;50.018;20.010;2023-11-19T10:11:48;20.65;;;12.10;;
23898;SDS011;20544;50.018;20.010;2023-11-19T10:15:06;13.58;;;11.55;;
23898;SDS011;20544;50.018;20.010;2023-11-19T10:18:29;13.13;;;10.75;;
23898;SDS011;20544;50.018;20.010;2023-11-19T10:21:48;16.03;;;11.78;;
23898;SDS011;20544;50.018;20.010;2023-11-19T10:25:08;12.93;;;11.60;;
23898;SDS011;20544;50.018;20.010;2023-11-19T10:28:40;13.28;;;11.20;;
23898;SDS011;20544;50.018;20.010;2023-11-19T10:31:57;18.58;;;12.45;;
23898;SDS011;20544;50.018;20.010;2023-11-19T10:35:16;15.18;;;11.83;;
23898;SDS011;20544;50.018;20.010;2023-11-19T10:38:33;14.15;;;10.35;;
23898;SDS011;20544;50.018;20.010;2023-11-19T10:41:51;18.50;;;9.88;;
23898;SDS011;20544;50.018;20.010;2023-11-19T10:45:10;14.15;;;9.58;;
23898;SDS011;20544;50.018;20.010;2023-11-19T10:48:37;12.63;;;11.35;;
23898;SDS011;20544;50.018;20.010;2023-11-19T10:51:55;14.83;;;11.28;;
23898;SDS011;20544;50.018;20.010;2023-11-19T10:55:12;12.35;;;10.88;;
23898;SDS011;20544;50.018;20.010;2023-11-19T10:58:33;16.40;;;11.75;;
23898;SDS011;20544;50.018;20.010;2023-11-19T11:01:58;10.33;;;9.18;;
23898;SDS011;20544;50.018;20.010;2023-11-19T11:05:20;11.75;;;8.70;;
23898;SDS011;20544;50.018;20.010;2023-11-19T11:08:39;13.88;;;8.48;;
23898;SDS011;20544;50.018;20.010;2023-11-19T11:11:57;9.80;;;7.83;;
23898;SDS011;20544;50.018;20.010;2023-11-19T11:18:32;83.08;;;51.53;;
23898;SDS011;20544;50.018;20.010;2023-11-19T11:21:50;19.80;;;15.83;;
23898;SDS011;20544;50.018;20.010;2023-11-19T11:25:16;12.35;;;10.20;;
23898;SDS011;20544;50.018;20.010;2023-11-19T11:28:46;11.78;;;9.45;;
23898;SDS011;20544;50.018;20.010;2023-11-19T11:32:12;10.33;;;7.83;;
23898;SDS011;20544;50.018;20.010;2023-11-19T11:35:34;16.50;;;8.93;;
23898;SDS011;20544;50.018;20.010;2023-11-19T11:38:57;10.68;;;8.25;;
23898;SDS011;20544;50.018;20.010;2023-11-19T11:42:35;11.55;;;7.95;;
23898;SDS011;20544;50.018;20.010;2023-11-19T11:45:53;12.63;;;8.13;;
23898;SDS011;20544;50.018;20.010;2023-11-19T11:49:11;9.93;;;7.65;;
23898;SDS011;20544;50.018;20.010;2023-11-19T11:52:28;11.33;;;7.78;;
23898;SDS011;20544;50.018;20.010;2023-11-19T11:55:58;8.98;;;7.78;;
23898;SDS011;20544;50.018;20.010;2023-11-19T11:59:19;10.85;;;7.50;;
23898;SDS011;20544;50.018;20.010;2023-11-19T12:02:38;13.88;;;8.20;;
23898;SDS011;20544;50.018;20.010;2023-11-19T12:05:56;10.20;;;7.15;;
23898;SDS011;20544;50.018;20.010;2023-11-19T12:09:25;10.05;;;7.60;;
23898;SDS011;20544;50.018;20.010;2023-11-19T12:12:43;9.93;;;7.10;;
23898;SDS011;20544;50.018;20.010;2023-11-19T12:16:09;8.28;;;6.98;;
23898;SDS011;20544;50.018;20.010;2023-11-19T12:19:29;8.25;;;5.85;;
23898;SDS011;20544;50.018;20.010;2023-11-19T12:22:46;7.83;;;6.18;;
23898;SDS011;20544;50.018;20.010;2023-11-19T12:26:06;7.48;;;6.10;;
23898;SDS011;20544;50.018;20.010;2023-11-19T12:29:42;10.70;;;6.25;;
23898;SDS011;20544;50.018;20.010;2023-11-19T12:33:00;9.33;;;5.63;;
23898;SDS011;20544;50.018;20.010;2023-11-19T12:36:22;7.05;;;5.58;;
23898;SDS011;20544;50.018;20.010;2023-11-19T12:39:39;6.75;;;5.80;;
23898;SDS011;20544;50.018;20.010;2023-11-19T12:42:56;8.40;;;5.95;;
23898;SDS011;20544;50.018;20.010;2023-11-19T12:46:20;6.95;;;5.85;;
23898;SDS011;20544;50.018;20.010;2023-11-19T12:49:40;6.38;;;5.35;;
23898;SDS011;20544;50.018;20.010;2023-11-19T12:52:57;5.88;;;5.13;;
23898;SDS011;20544;50.018;20.010;2023-11-19T12:56:15;7.58;;;6.33;;
23898;SDS011;20544;50.018;20.010;2023-11-19T12:59:32;23.70;;;17.13;;
23898;SDS011;20544;50.018;20.010;2023-11-19T13:02:50;6.28;;;5.65;;
23898;SDS011;20544;50.018;20.010;2023-11-19T13:06:11;8.30;;;5.90;;
23898;SDS011;20544;50.018;20.010;2023-11-19T13:09:29;7.67;;;5.77;;
23898;SDS011;20544;50.018;20.010;2023-11-19T13:16:19;19.23;;;9.18;;
23898;SDS011;20544;50.018;20.010;2023-11-19T13:19:36;7.08;;;6.08;;
23898;SDS011;20544;50.018;20.010;2023-11-19T13:22:57;7.20;;;6.35;;
23898;SDS011;20544;50.018;20.010;2023-11-19T13:26:15;7.30;;;5.85;;
23898;SDS011;20544;50.018;20.010;2023-11-19T13:29:32;8.75;;;7.05;;
23898;SDS011;20544;50.018;20.010;2023-11-19T13:32:50;9.88;;;6.35;;
23898;SDS011;20544;50.018;20.010;2023-11-19T13:36:09;8.35;;;6.93;;
23898;SDS011;20544;50.018;20.010;2023-11-19T13:39:27;9.70;;;7.37;;
23898;SDS011;20544;50.018;20.010;2023-11-19T13:42:45;8.00;;;7.20;;
23898;SDS011;20544;50.018;20.010;2023-11-19T13:46:03;9.63;;;7.50;;
23898;SDS011;20544;50.018;20.010;2023-11-19T13:49:21;11.38;;;8.75;;
23898;SDS011;20544;50.018;20.010;2023-11-19T13:52:39;13.48;;;8.38;;
23898;SDS011;20544;50.018;20.010;2023-11-19T13:55:57;12.40;;;9.58;;
23898;SDS011;20544;50.018;20.010;2023-11-19T13:59:14;11.65;;;8.55;;
23898;SDS011;20544;50.018;20.010;2023-11-19T14:02:33;10.73;;;9.73;;
23898;SDS011;20544;50.018;20.010;2023-11-19T14:05:50;10.45;;;9.45;;
23898;SDS011;20544;50.018;20.010;2023-11-19T14:09:08;12.65;;;10.10;;
23898;SDS011;20544;50.018;20.010;2023-11-19T14:12:25;12.15;;;9.25;;
23898;SDS011;20544;50.018;20.010;2023-11-19T14:15:43;11.93;;;9.78;;
23898;SDS011;20544;50.018;20.010;2023-11-19T14:19:00;14.85;;;9.95;;
23898;SDS011;20544;50.018;20.010;2023-11-19T14:22:17;82.28;;;52.93;;
23898;SDS011;20544;50.018;20.010;2023-11-19T14:25:35;27.33;;;14.90;;
23898;SDS011;20544;50.018;20.010;2023-11-19T14:28:52;12.63;;;10.60;;
23898;SDS011;20544;50.018;20.010;2023-11-19T14:32:09;12.20;;;9.05;;
23898;SDS011;20544;50.018;20.010;2023-11-19T14:35:27;11.35;;;9.08;;
23898;SDS011;20544;50.018;20.010;2023-11-19T14:42:00;10.80;;;9.18;;
23898;SDS011;20544;50.018;20.010;2023-11-19T14:45:18;10.95;;;9.03;;
23898;SDS011;20544;50.018;20.010;2023-11-19T14:48:37;13.58;;;9.58;;
23898;SDS011;20544;50.018;20.010;2023-11-19T14:51:59;11.75;;;10.55;;
23898;SDS011;20544;50.018;20.010;2023-11-19T14:55:19;19.80;;;10.85;;
23898;SDS011;20544;50.018;20.010;2023-11-19T14:58:36;13.70;;;10.30;;
23898;SDS011;20544;50.018;20.010;2023-11-19T15:01:54;12.75;;;10.08;;
23898;SDS011;20544;50.018;20.010;2023-11-19T15:05:13;15.93;;;10.98;;
23898;SDS011;20544;50.018;20.010;2023-11-19T15:08:30;14.55;;;11.28;;
23898;SDS011;20544;50.018;20.010;2023-11-19T15:11:47;12.25;;;10.53;;
23898;SDS011;20544;50.018;20.010;2023-11-19T15:15:07;19.13;;;12.10;;
23898;SDS011;20544;50.018;20.010;2023-11-19T15:18:26;23.50;;;14.38;;
23898;SDS011;20544;50.018;20.010;2023-11-19T15:21:43;23.23;;;15.05;;
23898;SDS011;20544;50.018;20.010;2023-11-19T15:25:02;19.30;;;15.58;;
23898;SDS011;20544;50.018;20.010;2023-11-19T15:28:20;24.55;;;15.70;;
23898;SDS011;20544;50.018;20.010;2023-11-19T15:31:37;22.03;;;16.25;;
23898;SDS011;20544;50.018;20.010;2023-11-19T15:34:55;22.15;;;16.13;;
23898;SDS011;20544;50.018;20.010;2023-11-19T15:38:15;20.75;;;17.00;;
23898;SDS011;20544;50.018;20.010;2023-11-19T15:41:33;21.63;;;16.35;;
23898;SDS011;20544;50.018;20.010;2023-11-19T15:44:51;22.48;;;16.45;;
23898;SDS011;20544;50.018;20.010;2023-11-19T15:48:10;25.30;;;18.05;;
23898;SDS011;20544;50.018;20.010;2023-11-19T15:51:27;23.35;;;18.08;;
23898;SDS011;20544;50.018;20.010;2023-11-19T15:54:44;22.75;;;16.75;;
23898;SDS011;20544;50.018;20.010;2023-11-19T15:58:05;20.33;;;17.95;;
23898;SDS011;20544;50.018;20.010;2023-11-19T16:01:22;23.73;;;17.73;;
23898;SDS011;20544;50.018;20.010;2023-11-19T16:04:40;22.10;;;17.23;;
23898;SDS011;20544;50.018;20.010;2023-11-19T16:07:59;23.07;;;16.73;;
23898;SDS011;20544;50.018;20.010;2023-11-19T16:11:18;22.30;;;16.78;;
23898;SDS011;20544;50.018;20.010;2023-11-19T16:14:37;22.00;;;16.93;;
23898;SDS011;20544;50.018;20.010;2023-11-19T16:17:54;21.25;;;16.98;;
23898;SDS011;20544;50.018;20.010;2023-11-19T16:21:11;24.30;;;17.13;;
23898;SDS011;20544;50.018;20.010;2023-11-19T16:24:29;22.20;;;16.48;;
23898;SDS011;20544;50.018;20.010;2023-11-19T16:27:47;20.35;;;15.95;;
23898;SDS011;20544;50.018;20.010;2023-11-19T16:31:04;24.83;;;17.60;;
23898;SDS011;20544;50.018;20.010;2023-11-19T16:34:23;21.05;;;17.13;;
23898;SDS011;20544;50.018;20.010;2023-11-19T16:37:42;24.68;;;18.68;;
23898;SDS011;20544;50.018;20.010;2023-11-19T16:41:00;23.15;;;18.08;;
23898;SDS011;20544;50.018;20.010;2023-11-19T16:44:19;23.63;;;18.28;;
23898;SDS011;20544;50.018;20.010;2023-11-19T16:47:36;26.55;;;16.98;;
23898;SDS011;20544;50.018;20.010;2023-11-19T16:50:55;25.88;;;17.03;;
23898;SDS011;20544;50.018;20.010;2023-11-19T16:54:12;29.30;;;18.23;;
23898;SDS011;20544;50.018;20.010;2023-11-19T16:57:31;26.88;;;19.55;;
23898;SDS011;20544;50.018;20.010;2023-11-19T17:00:48;22.75;;;16.53;;
23898;SDS011;20544;50.018;20.010;2023-11-19T17:04:06;20.38;;;17.00;;
23898;SDS011;20544;50.018;20.010;2023-11-19T17:07:24;26.70;;;16.70;;
23898;SDS011;20544;50.018;20.010;2023-11-19T17:10:41;19.80;;;16.50;;
23898;SDS011;20544;50.018;20.010;2023-11-19T17:14:01;19.30;;;16.88;;
23898;SDS011;20544;50.018;20.010;2023-11-19T17:17:20;22.00;;;16.50;;
23898;SDS011;20544;50.018;20.010;2023-11-19T17:20:39;20.95;;;16.15;;
23898;SDS011;20544;50.018;20.010;2023-11-19T17:23:56;22.90;;;15.75;;
23898;SDS011;20544;50.018;20.010;2023-11-19T17:27:13;25.30;;;15.95;;
23898;SDS011;20544;50.018;20.010;2023-11-19T17:30:32;21.18;;;17.20;;
23898;SDS011;20544;50.018;20.010;2023-11-19T17:33:52;23.80;;;16.70;;
23898;SDS011;20544;50.018;20.010;2023-11-19T17:37:12;18.28;;;16.25;;
23898;SDS011;20544;50.018;20.010;2023-11-19T17:40:29;21.00;;;16.95;;
23898;SDS011;20544;50.018;20.010;2023-11-19T17:43:47;22.65;;;17.15;;
23898;SDS011;20544;50.018;20.010;2023-11-19T17:47:05;19.45;;;16.20;;
23898;SDS011;20544;50.018;20.010;2023-11-19T17:50:25;21.23;;;16.95;;
23898;SDS011;20544;50.018;20.010;2023-11-19T17:53:45;23.30;;;16.78;;
23898;SDS011;20544;50.018;20.010;2023-11-19T17:57:02;22.75;;;17.65;;
23898;SDS011;20544;50.018;20.010;2023-11-19T18:00:22;25.30;;;18.43;;
23898;SDS011;20544;50.018;20.010;2023-11-19T18:03:53;24.00;;;17.73;;
23898;SDS011;20544;50.018;20.010;2023-11-19T18:07:11;21.10;;;17.73;;
23898;SDS011;20544;50.018;20.010;2023-11-19T18:10:29;25.38;;;18.53;;
23898;SDS011;20544;50.018;20.010;2023-11-19T18:13:46;22.43;;;17.45;;
23898;SDS011;20544;50.018;20.010;2023-11-19T18:17:07;27.03;;;18.73;;
23898;SDS011;20544;50.018;20.010;2023-11-19T18:20:25;19.45;;;16.33;;
23898;SDS011;20544;50.018;20.010;2023-11-19T18:23:52;21.75;;;18.43;;
23898;SDS011;20544;50.018;20.010;2023-11-19T18:27:09;25.58;;;19.18;;
23898;SDS011;20544;50.018;20.010;2023-11-19T18:30:31;32.95;;;18.70;;
23898;SDS011;20544;50.018;20.010;2023-11-19T18:33:52;27.60;;;18.18;;
23898;SDS011;20544;50.018;20.010;2023-11-19T18:37:12;20.05;;;17.03;;
23898;SDS011;20544;50.018;20.010;2023-11-19T18:43:46;26.90;;;16.33;;
23898;SDS011;20544;50.018;20.010;2023-11-19T18:47:10;17.65;;;15.10;;
23898;SDS011;20544;50.018;20.010;2023-11-19T18:50:27;20.38;;;15.28;;
23898;SDS011;20544;50.018;20.010;2023-11-19T18:53:46;18.40;;;15.05;;
23898;SDS011;20544;50.018;20.010;2023-11-19T18:57:05;19.37;;;14.23;;
23898;SDS011;20544;50.018;20.010;2023-11-19T19:00:22;21.30;;;14.73;;
23898;SDS011;20544;50.018;20.010;2023-11-19T19:03:39;18.20;;;13.10;;
23898;SDS011;20544;50.018;20.010;2023-11-19T19:06:57;20.50;;;13.73;;
23898;SDS011;20544;50.018;20.010;2023-11-19T19:10:15;19.45;;;12.85;;
23898;SDS011;20544;50.018;20.010;2023-11-19T19:13:32;19.10;;;14.48;;
23898;SDS011;20544;50.018;20.010;2023-11-19T19:16:49;16.73;;;12.43;;
23898;SDS011;20544;50.018;20.010;2023-11-19T19:20:07;19.00;;;12.70;;
23898;SDS011;20544;50.018;20.010;2023-11-19T19:23:25;13.93;;;12.48;;
23898;SDS011;20544;50.018;20.010;2023-11-19T19:26:43;17.75;;;12.70;;
23898;SDS011;20544;50.018;20.010;2023-11-19T19:30:07;33.20;;;21.33;;